Murdock, Kansas
Current Conditions -  °F | °C
As of 3:53 PM on Wednesday 28 Jan 2015 (Local Time) from KICT Reporting Station
Scattered Clouds Scattered Clouds  
Wind Chill: 71°   Ceiling: Unl
Heat Index: 71°   Visibility: 10mi
Dew Point: 33°   Wind: 13mph
Humidity: 25%   Direction: 280°W
Pressure: 29.81"   Gusts: NA
Location:  37.61°N, 97.93°W
Report Text: KICT 282153Z 28011KT 10SM FEW180 SCT220 22/01 A2981 RMK AO2 SLP089 T02170006
Loading
Personal Weather Stations






























Interactive Weather Map New forecast layout! Learn more

10-Day Weather Forecast

Advertisements
Track Severe Weather on mobile